createdAt,value
2018-04-28T00:01:04.764Z,13.80
2018-04-28T00:03:32.360Z,13.80
2018-04-28T00:06:00.713Z,13.70
2018-04-28T00:08:29.745Z,13.70
2018-04-28T00:10:57.356Z,13.60
2018-04-28T00:13:24.967Z,13.50
2018-04-28T00:15:53.442Z,13.40
2018-04-28T00:18:24.701Z,13.00
2018-04-28T00:20:52.305Z,13.00
2018-04-28T00:23:19.905Z,13.00
2018-04-28T00:25:49.847Z,12.90
2018-04-28T00:31:14.752Z,12.80
2018-04-28T00:33:42.296Z,12.80
2018-04-28T00:36:13.264Z,12.60
2018-04-28T00:38:48.396Z,12.60
2018-04-28T00:41:15.969Z,12.50
2018-04-28T00:43:44.352Z,12.20
2018-04-28T00:46:18.706Z,12.20
2018-04-28T00:51:43.593Z,12.00
2018-04-28T00:54:41.357Z,12.00
2018-04-28T00:57:33.665Z,11.90
2018-04-28T01:00:02.729Z,11.80
2018-04-28T01:02:30.252Z,11.70
2018-04-28T01:04:57.770Z,11.70
2018-04-28T01:07:26.064Z,11.50
2018-04-28T01:10:00.342Z,11.50
2018-04-28T01:12:31.441Z,11.50
2018-04-28T01:18:03.521Z,11.30
2018-04-28T01:20:31.058Z,11.30
2018-04-28T01:23:00.525Z,11.20
2018-04-28T01:25:37.895Z,11.10
2018-04-28T01:28:07.237Z,11.00
2018-04-28T01:30:38.230Z,10.80
2018-04-28T01:33:11.813Z,10.80
2018-04-28T01:36:00.962Z,10.70
2018-04-28T01:38:30.231Z,10.70
2018-04-28T01:41:15.642Z,10.50
2018-04-28T01:49:42.448Z,10.70
2018-04-28T01:52:10.008Z,10.70
2018-04-28T01:54:59.992Z,10.70
2018-04-28T02:00:32.732Z,10.60
2018-04-28T02:06:24.657Z,10.70
2018-04-28T02:08:53.120Z,10.60
2018-04-28T02:11:24.176Z,10.60
2018-04-28T02:14:13.277Z,10.50
2018-04-28T02:16:42.369Z,10.30
2018-04-28T02:19:16.370Z,10.20
2018-04-28T02:22:05.409Z,10.20
2018-04-28T02:28:02.373Z,10.00
2018-04-28T02:30:29.901Z,9.90
2018-04-28T02:32:58.167Z,9.80
2018-04-28T02:35:28.300Z,9.80
2018-04-28T02:38:05.774Z,9.80
2018-04-28T02:40:51.026Z,9.80
2018-04-28T02:43:19.436Z,9.80
2018-04-28T02:46:04.649Z,9.80
2018-04-28T02:51:55.749Z,9.70
2018-04-28T02:54:24.108Z,9.70
2018-04-28T02:56:52.421Z,9.70
2018-04-28T02:59:22.450Z,9.70
2018-04-28T03:01:51.833Z,9.70
2018-04-28T03:04:20.081Z,9.70
2018-04-28T03:06:51.277Z,9.60
2018-04-28T03:09:22.424Z,9.60
2018-04-28T03:11:53.887Z,9.60
2018-04-28T03:14:21.500Z,9.50
2018-04-28T03:16:55.607Z,9.50
2018-04-28T03:19:24.902Z,9.40
2018-04-28T03:21:55.254Z,9.40
2018-04-28T03:24:25.246Z,9.40
2018-04-28T03:26:55.629Z,9.40
2018-04-28T03:29:33.125Z,9.40
2018-04-28T03:32:00.716Z,9.30
2018-04-28T03:34:34.176Z,9.20
2018-04-28T03:40:16.633Z,9.10
2018-04-28T03:42:45.681Z,9.10
2018-04-28T03:45:13.261Z,9.10
2018-04-28T03:47:44.534Z,9.00
2018-04-28T03:50:28.773Z,9.00
2018-04-28T03:53:05.112Z,9.10
2018-04-28T03:55:32.717Z,9.00
2018-04-28T03:58:12.144Z,9.10
2018-04-28T04:00:52.439Z,9.20
2018-04-28T04:03:24.742Z,9.20
2018-04-28T04:08:57.477Z,9.20
2018-04-28T04:11:46.512Z,9.30
2018-04-28T04:14:40.866Z,9.30
2018-04-28T04:17:14.229Z,9.40
2018-04-28T04:19:50.488Z,9.50
2018-04-28T04:22:21.597Z,9.60
2018-04-28T04:24:54.631Z,9.70
2018-04-28T04:27:44.720Z,9.70
2018-04-28T04:33:53.068Z,9.70
2018-04-28T04:36:29.405Z,9.70
2018-04-28T04:38:57.031Z,9.80
2018-04-28T04:44:33.713Z,9.90
2018-04-28T04:47:08.241Z,9.90
2018-04-28T04:49:52.522Z,9.90
2018-04-28T04:52:32.745Z,10.10
2018-04-28T04:55:06.286Z,10.10
2018-04-28T04:57:57.043Z,10.20
2018-04-28T05:00:33.291Z,10.30
2018-04-28T05:03:12.588Z,10.50
2018-04-28T05:05:40.989Z,10.50
2018-04-28T05:08:30.903Z,10.60
2018-04-28T05:11:10.238Z,10.60
2018-04-28T05:16:56.270Z,10.90
2018-04-28T05:19:37.321Z,11.10
2018-04-28T05:22:11.598Z,11.10
2018-04-28T05:27:49.642Z,11.50
2018-04-28T05:33:40.367Z,11.50
2018-04-28T05:36:11.477Z,11.60
2018-04-28T05:42:07.942Z,11.80
2018-04-28T05:44:56.200Z,11.80
2018-04-28T05:47:39.619Z,11.80
2018-04-28T05:50:25.208Z,11.80
2018-04-28T05:56:27.061Z,11.70
2018-04-28T05:59:04.140Z,11.70
2018-04-28T06:01:43.267Z,11.60
2018-04-28T06:04:24.449Z,11.50
2018-04-28T06:07:04.666Z,11.60
2018-04-28T06:12:57.115Z,11.90
2018-04-28T06:15:30.647Z,11.90
2018-04-28T06:18:16.617Z,12.10
2018-04-28T06:20:45.865Z,12.10
2018-04-28T06:23:14.252Z,12.10
2018-04-28T06:25:42.594Z,12.10
2018-04-28T06:28:10.205Z,12.20
2018-04-28T06:30:38.100Z,12.50
2018-04-28T06:33:05.702Z,12.70
2018-04-28T06:35:33.299Z,13.10
2018-04-28T06:38:00.926Z,13.30
2018-04-28T06:40:29.295Z,13.80
2018-04-28T06:42:56.947Z,13.80
2018-04-28T06:45:24.535Z,13.70
2018-04-28T06:47:52.949Z,13.60
2018-04-28T06:50:20.514Z,13.60
2018-04-28T06:52:48.150Z,13.60
2018-04-28T06:55:15.726Z,13.30
2018-04-28T06:57:43.347Z,13.50
2018-04-28T07:00:11.726Z,14.00
2018-04-28T07:02:40.043Z,14.30
2018-04-28T07:05:07.598Z,14.20
2018-04-28T07:10:32.857Z,14.40
2018-04-28T07:13:00.481Z,14.50
2018-04-28T07:15:28.100Z,14.70
2018-04-28T07:17:56.419Z,15.00
2018-04-28T07:20:24.029Z,15.00
2018-04-28T07:22:51.656Z,15.20
2018-04-28T07:25:19.350Z,15.30
2018-04-28T07:27:46.930Z,15.50
2018-04-28T07:30:15.295Z,15.90
2018-04-28T07:32:42.873Z,15.90
2018-04-28T07:35:11.320Z,15.70
2018-04-28T07:37:38.886Z,15.70
2018-04-28T07:40:06.476Z,15.50
2018-04-28T07:42:34.079Z,15.00
2018-04-28T07:45:01.672Z,14.80
2018-04-28T07:47:29.302Z,14.50
2018-04-28T07:49:56.902Z,14.50
2018-04-28T07:52:24.547Z,14.90
2018-04-28T07:54:52.143Z,15.40
2018-04-28T07:57:19.758Z,15.80
2018-04-28T07:59:47.385Z,16.00
2018-04-28T08:02:14.961Z,16.10
2018-04-28T08:04:42.557Z,16.50
2018-04-28T08:07:10.133Z,17.20
2018-04-28T08:09:38.497Z,16.70
2018-04-28T08:12:06.140Z,16.70
2018-04-28T08:14:33.747Z,16.80
2018-04-28T08:17:02.079Z,16.40
2018-04-28T08:19:29.682Z,16.40
2018-04-28T08:21:58.009Z,16.40
2018-04-28T08:24:25.558Z,16.30
2018-04-28T08:26:53.186Z,16.40
2018-04-28T08:29:20.757Z,16.40
2018-04-28T08:31:48.374Z,16.50
2018-04-28T08:34:15.964Z,16.40
2018-04-28T08:36:44.313Z,16.10
2018-04-28T08:39:11.911Z,16.10
2018-04-28T08:41:39.485Z,15.90
2018-04-28T08:44:07.055Z,15.90
2018-04-28T08:46:34.678Z,15.90
2018-04-28T08:49:02.998Z,16.10
2018-04-28T08:51:30.617Z,16.10
2018-04-28T08:53:58.941Z,16.90
2018-04-28T08:56:26.530Z,17.00
2018-04-28T08:58:54.126Z,17.50
2018-04-28T09:01:21.683Z,18.30
2018-04-28T09:03:49.390Z,18.40
2018-04-28T09:06:16.908Z,18.60
2018-04-28T09:08:44.543Z,18.60
2018-04-28T09:11:12.884Z,18.90
2018-04-28T09:13:40.495Z,19.00
2018-04-28T09:16:08.061Z,19.10
2018-04-28T09:18:35.657Z,19.10
2018-04-28T09:21:03.241Z,19.00
2018-04-28T09:23:30.824Z,19.10
2018-04-28T09:26:02.459Z,19.40
2018-04-28T09:28:29.943Z,19.40
2018-04-28T09:30:58.318Z,20.70
2018-04-28T09:33:26.744Z,22.30
2018-04-28T09:35:54.362Z,22.20
2018-04-28T09:38:22.711Z,23.90
2018-04-28T09:40:50.346Z,23.80
2018-04-28T09:43:17.904Z,23.50
2018-04-28T09:45:45.524Z,23.60
2018-04-28T09:48:13.078Z,23.40
2018-04-28T09:50:41.446Z,24.20
2018-04-28T09:53:09.754Z,24.30
2018-04-28T09:55:37.296Z,24.30
2018-04-28T09:58:05.820Z,22.40
2018-04-28T10:00:35.227Z,22.90
2018-04-28T10:03:05.621Z,23.10
2018-04-28T10:05:33.191Z,22.60
2018-04-28T10:08:04.385Z,22.20
2018-04-28T10:10:31.994Z,21.60
2018-04-28T10:12:59.603Z,21.80
2018-04-28T10:15:27.189Z,22.80
2018-04-28T10:17:54.807Z,23.80
2018-04-28T10:20:22.442Z,25.10
2018-04-28T10:22:49.965Z,25.90
2018-04-28T10:25:17.497Z,25.50
2018-04-28T10:27:45.041Z,25.90
2018-04-28T10:30:13.573Z,26.40
2018-04-28T10:32:41.869Z,26.50
2018-04-28T10:35:11.357Z,26.40
2018-04-28T10:37:39.648Z,26.20
2018-04-28T10:40:09.127Z,26.10
2018-04-28T10:42:37.411Z,26.10
2018-04-28T10:45:05.721Z,26.10
2018-04-28T10:47:34.092Z,25.90
2018-04-28T10:50:01.580Z,25.90
2018-04-28T10:52:29.939Z,26.00
2018-04-28T10:54:57.464Z,25.40
2018-04-28T10:57:25.000Z,25.40
2018-04-28T10:59:52.511Z,24.70
2018-04-28T11:02:20.049Z,24.80
2018-04-28T11:04:47.593Z,24.70
2018-04-28T11:07:15.883Z,24.70
2018-04-28T11:09:43.413Z,24.70
2018-04-28T11:12:11.714Z,25.50
2018-04-28T11:14:39.233Z,25.50
2018-04-28T11:17:06.749Z,25.70
2018-04-28T11:19:34.287Z,25.70
2018-04-28T11:22:01.814Z,25.90
2018-04-28T11:24:29.354Z,26.10
2018-04-28T11:26:56.901Z,26.20
2018-04-28T11:29:24.449Z,25.90
2018-04-28T11:31:51.986Z,25.60
2018-04-28T11:34:19.528Z,25.20
2018-04-28T11:36:47.059Z,25.50
2018-04-28T11:39:14.589Z,25.50
2018-04-28T11:41:42.114Z,25.80
2018-04-28T11:44:10.397Z,25.70
2018-04-28T11:46:37.944Z,25.70
2018-04-28T11:49:06.225Z,25.30
2018-04-28T11:51:33.752Z,25.30
2018-04-28T11:54:01.280Z,25.40
2018-04-28T11:56:28.799Z,25.50
2018-04-28T11:58:57.187Z,26.70
2018-04-28T12:01:24.644Z,26.70
2018-04-28T12:03:52.194Z,27.40
2018-04-28T12:06:20.485Z,27.60
2018-04-28T12:08:48.024Z,27.60
2018-04-28T12:11:16.324Z,27.70
2018-04-28T12:13:43.874Z,27.70
2018-04-28T12:16:11.425Z,27.30
2018-04-28T12:18:38.985Z,27.10
2018-04-28T12:21:06.675Z,27.00
2018-04-28T12:23:34.200Z,26.60
2018-04-28T12:26:01.761Z,26.00
2018-04-28T12:28:29.394Z,25.70
2018-04-28T12:30:56.990Z,25.40
2018-04-28T12:33:24.587Z,25.40
2018-04-28T12:35:52.234Z,25.70
2018-04-28T12:38:19.856Z,25.80
2018-04-28T12:40:48.283Z,27.10
2018-04-28T12:43:15.848Z,27.10
2018-04-28T12:45:43.465Z,27.80
2018-04-28T12:48:11.053Z,27.90
2018-04-28T12:50:38.690Z,27.90
2018-04-28T12:53:11.893Z,27.90
2018-04-28T12:55:39.516Z,28.40
2018-04-28T12:58:07.881Z,28.10
2018-04-28T13:00:35.475Z,28.10
2018-04-28T13:03:03.053Z,27.90
2018-04-28T13:05:30.673Z,28.20
2018-04-28T13:07:59.059Z,28.80
2018-04-28T13:10:27.365Z,28.50
2018-04-28T13:13:09.679Z,28.50
2018-04-28T13:15:49.015Z,29.00
2018-04-28T13:18:22.318Z,29.30
2018-04-28T13:20:49.914Z,29.50
2018-04-28T13:23:17.489Z,29.60
2018-04-28T13:26:07.086Z,29.80
2018-04-28T13:28:34.721Z,29.80
2018-04-28T13:31:03.068Z,28.90
2018-04-28T13:33:30.625Z,28.90
2018-04-28T13:35:58.230Z,28.00
2018-04-28T13:38:26.613Z,27.30
2018-04-28T13:40:54.233Z,27.30
2018-04-28T13:43:21.849Z,27.10
2018-04-28T13:45:49.462Z,27.70
2018-04-28T13:48:17.110Z,27.80
2018-04-28T13:50:45.417Z,27.90
2018-04-28T13:53:13.763Z,28.10
2018-04-28T13:55:42.175Z,28.10
2018-04-28T13:58:10.534Z,27.50
2018-04-28T14:00:38.164Z,27.50
2018-04-28T14:03:05.754Z,27.60
2018-04-28T14:05:33.322Z,27.20
2018-04-28T14:08:00.927Z,26.90
2018-04-28T14:10:28.477Z,26.80
2018-04-28T14:12:56.051Z,26.90
2018-04-28T14:15:23.624Z,27.10
2018-04-28T14:17:51.208Z,27.30
2018-04-28T14:20:18.811Z,27.30
2018-04-28T14:22:46.378Z,27.10
2018-04-28T14:25:13.985Z,27.10
2018-04-28T14:27:41.570Z,27.30
2018-04-28T14:30:09.954Z,26.70
2018-04-28T14:32:38.336Z,26.60
2018-04-28T14:35:05.941Z,26.60
2018-04-28T14:37:33.526Z,26.50
2018-04-28T14:40:01.131Z,26.60
2018-04-28T14:42:37.652Z,26.50
2018-04-28T14:45:05.205Z,26.30
2018-04-28T14:47:32.801Z,26.50
2018-04-28T14:50:01.210Z,25.40
2018-04-28T14:52:28.822Z,25.40
2018-04-28T14:54:56.400Z,24.90
2018-04-28T14:57:24.784Z,24.60
2018-04-28T14:59:53.121Z,24.60
2018-04-28T15:02:20.686Z,24.60
2018-04-28T15:04:48.285Z,24.70
2018-04-28T15:07:15.871Z,24.80
2018-04-28T15:09:43.476Z,24.70
2018-04-28T15:12:11.045Z,25.20
2018-04-28T15:14:38.668Z,24.90
2018-04-28T15:17:06.211Z,25.20
2018-04-28T15:19:33.814Z,25.10
2018-04-28T15:22:01.439Z,24.90
2018-04-28T15:24:29.065Z,24.80
2018-04-28T15:26:56.661Z,24.60
2018-04-28T15:29:24.287Z,24.70
2018-04-28T15:31:51.900Z,24.70
2018-04-28T15:34:19.486Z,24.70
2018-04-28T15:36:47.117Z,24.60
2018-04-28T15:39:14.675Z,24.30
2018-04-28T15:41:42.285Z,24.20
2018-04-28T15:44:10.701Z,24.20
2018-04-28T15:46:38.307Z,24.20
2018-04-28T15:49:05.913Z,24.10
2018-04-28T15:51:33.525Z,24.10
2018-04-28T15:54:01.147Z,24.00
2018-04-28T15:56:28.725Z,23.80
2018-04-28T15:58:56.279Z,23.80
2018-04-28T16:01:23.876Z,23.60
2018-04-28T16:03:52.320Z,23.80
2018-04-28T16:06:19.912Z,23.80
2018-04-28T16:08:47.530Z,23.50
2018-04-28T16:11:15.101Z,23.50
2018-04-28T16:13:42.701Z,23.30
2018-04-28T16:16:10.334Z,23.20
2018-04-28T16:18:37.974Z,23.60
2018-04-28T16:21:05.570Z,23.60
2018-04-28T16:23:34.042Z,23.40
2018-04-28T16:26:01.662Z,23.50
2018-04-28T16:28:29.218Z,23.50
2018-04-28T16:31:20.715Z,23.40
2018-04-28T16:33:48.353Z,23.10
2018-04-28T16:36:15.983Z,22.90
2018-04-28T16:38:43.577Z,22.40
2018-04-28T16:41:11.932Z,22.10
2018-04-28T16:43:39.498Z,22.10
2018-04-28T16:46:07.080Z,21.60
2018-04-28T16:48:35.417Z,20.50
2018-04-28T16:51:02.999Z,20.40
2018-04-28T16:53:30.601Z,20.10
2018-04-28T16:55:58.160Z,19.80
2018-04-28T16:58:25.868Z,19.40
2018-04-28T17:00:53.442Z,19.20
2018-04-28T17:03:21.055Z,18.90
2018-04-28T17:05:48.635Z,18.70
2018-04-28T17:08:16.229Z,18.50
2018-04-28T17:10:43.821Z,18.30
2018-04-28T17:13:11.422Z,18.20
2018-04-28T17:15:38.994Z,18.10
2018-04-28T17:18:06.586Z,18.00
2018-04-28T17:20:35.830Z,17.80
2018-04-28T17:23:03.457Z,17.80
2018-04-28T17:25:31.082Z,17.80
2018-04-28T17:27:58.668Z,17.70
2018-04-28T17:30:27.037Z,17.70
2018-04-28T17:32:54.614Z,17.70
2018-04-28T17:35:23.016Z,17.70
2018-04-28T17:37:50.617Z,17.70
2018-04-28T17:40:18.277Z,17.60
2018-04-28T17:42:45.916Z,17.50
2018-04-28T17:45:13.414Z,17.50
2018-04-28T17:47:40.998Z,17.60
2018-04-28T17:50:08.604Z,17.50
2018-04-28T17:52:36.240Z,17.50
2018-04-28T17:55:03.855Z,17.40
2018-04-28T17:57:31.467Z,17.30
2018-04-28T17:59:59.021Z,17.20
2018-04-28T18:02:26.630Z,17.20
2018-04-28T18:04:54.208Z,17.10
2018-04-28T18:07:47.195Z,16.90
2018-04-28T18:10:15.636Z,16.70
2018-04-28T18:12:47.910Z,16.70
2018-04-28T18:15:16.329Z,16.50
2018-04-28T18:17:44.736Z,16.50
2018-04-28T18:20:12.315Z,16.40
2018-04-28T18:22:57.803Z,16.30
2018-04-28T18:28:43.717Z,16.10
2018-04-28T18:31:36.564Z,15.90
2018-04-28T18:34:06.261Z,15.70
2018-04-28T18:36:39.143Z,15.40
2018-04-28T18:39:10.805Z,15.30
2018-04-28T18:41:40.420Z,15.10
2018-04-28T18:44:25.888Z,15.00
2018-04-28T18:46:58.038Z,15.00
2018-04-28T18:49:25.704Z,15.00
2018-04-28T18:51:53.392Z,15.10
2018-04-28T18:54:20.984Z,15.10
2018-04-28T18:56:48.586Z,15.20
2018-04-28T18:59:16.181Z,15.20
2018-04-28T19:01:48.633Z,15.30
2018-04-28T19:04:25.941Z,15.30
2018-04-28T19:06:54.350Z,15.30
2018-04-28T19:09:21.947Z,15.30
2018-04-28T19:12:06.583Z,15.40
2018-04-28T19:14:34.162Z,15.30
2018-04-28T19:17:01.836Z,15.30
2018-04-28T19:19:31.446Z,15.30
2018-04-28T19:21:59.039Z,15.30
2018-04-28T19:24:26.686Z,15.30
2018-04-28T19:26:55.082Z,15.40
2018-04-28T19:29:23.428Z,15.30
2018-04-28T19:31:51.059Z,15.30
2018-04-28T19:34:19.651Z,15.30
2018-04-28T19:36:47.208Z,15.30
2018-04-28T19:39:14.850Z,15.30
2018-04-28T19:41:56.904Z,15.20
2018-04-28T19:44:24.461Z,15.20
2018-04-28T19:46:52.055Z,15.10
2018-04-28T19:49:19.710Z,15.10
2018-04-28T19:51:47.328Z,15.10
2018-04-28T19:54:17.944Z,15.10
2018-04-28T19:56:45.477Z,15.00
2018-04-28T19:59:13.153Z,15.00
2018-04-28T20:01:40.768Z,14.80
2018-04-28T20:04:09.228Z,14.60
2018-04-28T20:06:36.873Z,14.60
2018-04-28T20:09:09.689Z,14.50
2018-04-28T20:11:38.064Z,14.50
2018-04-28T20:14:06.435Z,14.40
2018-04-28T20:28:17.836Z,13.80
2018-04-28T20:30:45.456Z,13.80
2018-04-28T20:33:13.015Z,13.70
2018-04-28T20:35:46.451Z,13.70
2018-04-28T20:38:13.960Z,13.60
2018-04-28T20:40:41.558Z,13.70
2018-04-28T20:43:09.165Z,13.80
2018-04-28T20:45:36.794Z,13.80
2018-04-28T20:48:06.387Z,13.90
2018-04-28T20:50:33.974Z,13.80
2018-04-28T20:53:01.606Z,13.80
2018-04-28T20:55:29.961Z,13.70
2018-04-28T20:57:57.578Z,13.70
2018-04-28T21:00:25.169Z,13.70
2018-04-28T21:02:52.736Z,13.50
2018-04-28T21:05:20.313Z,13.40
2018-04-28T21:07:48.678Z,13.00
2018-04-28T21:10:17.044Z,12.80
2018-04-28T21:12:44.668Z,12.70
2018-04-28T21:15:12.219Z,12.60
2018-04-28T21:17:39.871Z,12.60
2018-04-28T21:20:07.465Z,12.50
2018-04-28T21:22:35.080Z,12.50
2018-04-28T21:25:02.709Z,12.50
2018-04-28T21:27:30.267Z,12.60
2018-04-28T21:29:57.890Z,12.60
2018-04-28T21:32:25.440Z,12.70
2018-04-28T21:34:53.038Z,12.80
2018-04-28T21:37:20.666Z,12.90
2018-04-28T21:39:48.292Z,13.00
2018-04-28T21:42:16.694Z,12.90
2018-04-28T21:44:44.315Z,12.90
2018-04-28T21:47:11.969Z,13.00
2018-04-28T21:49:39.585Z,12.90
2018-04-28T21:52:07.188Z,13.00
2018-04-28T21:54:34.793Z,13.10
2018-04-28T21:57:02.385Z,13.30
2018-04-28T21:59:30.002Z,13.40
2018-04-28T22:01:57.558Z,13.50
2018-04-28T22:04:25.919Z,13.40
2018-04-28T22:09:52.377Z,13.30
2018-04-28T22:12:20.700Z,13.30
2018-04-28T22:14:48.306Z,13.20
2018-04-28T22:17:15.934Z,13.20
2018-04-28T22:19:43.540Z,13.20
2018-04-28T22:22:11.904Z,13.20
2018-04-28T22:24:39.509Z,13.10
2018-04-28T22:27:07.094Z,13.10
2018-04-28T22:29:34.680Z,13.10
2018-04-28T22:32:02.270Z,12.90
2018-04-28T22:34:30.578Z,12.70
2018-04-28T22:36:58.158Z,12.60
2018-04-28T22:39:25.764Z,12.60
2018-04-28T22:41:53.369Z,12.50
2018-04-28T22:44:20.985Z,12.50
2018-04-28T22:46:48.572Z,12.40
2018-04-28T22:49:16.125Z,12.50
2018-04-28T22:51:43.774Z,12.40
2018-04-28T22:54:11.365Z,12.40
2018-04-28T22:56:38.970Z,12.30
2018-04-28T22:59:07.294Z,12.40
2018-04-28T23:01:34.897Z,12.40
2018-04-28T23:04:02.515Z,12.40
2018-04-28T23:06:30.103Z,12.50
2018-04-28T23:08:57.684Z,12.50
2018-04-28T23:11:26.047Z,12.50
2018-04-28T23:13:53.694Z,12.50
2018-04-28T23:16:21.322Z,12.50
2018-04-28T23:18:48.902Z,12.50
2018-04-28T23:21:16.506Z,12.50
2018-04-28T23:23:44.857Z,12.50
2018-04-28T23:26:12.433Z,12.50
2018-04-28T23:28:40.038Z,12.50
2018-04-28T23:31:07.617Z,12.50
2018-04-28T23:33:35.217Z,12.50
2018-04-28T23:36:02.778Z,12.50
2018-04-28T23:38:31.156Z,12.40
2018-04-28T23:40:58.754Z,12.40
2018-04-28T23:43:26.317Z,12.30
2018-04-28T23:45:54.667Z,12.40
2018-04-28T23:48:23.000Z,12.40
2018-04-28T23:50:50.607Z,12.40
2018-04-28T23:53:18.961Z,12.30
2018-04-28T23:55:46.618Z,12.30
2018-04-28T23:58:14.193Z,12.30
